Time;durP1;ratioP1;P1;durP2;ratioP2;P2;SDS_P1;SDS_P2;PMS_P1;PMS_P2;Temp;Humidity;BMP_temperature;BMP_pressure;BME280_temperature;BME280_humidity;BME280_pressure;Samples;Min_cycle;Max_cycle;Signal;HPM_P1;HPM_P2
2022/10/23 00:01:16;;;;;;;2.40;1.55;;;11.10;99.90;;;;;;5003824;28;20085;-86
2022/10/23 00:03:43;;;;;;;1.30;1.05;;;11.00;99.90;;;;;;4979369;28;20065;-84
2022/10/23 00:06:10;;;;;;;1.85;1.17;;;11.00;99.90;;;;;;4977637;28;20093;-84
2022/10/23 00:08:36;;;;;;;1.70;1.27;;;10.90;99.90;;;;;;5003236;28;20022;-84
2022/10/23 00:11:09;;;;;;;2.15;0.80;;;10.90;99.90;;;;;;5003816;28;20030;-84
2022/10/23 00:13:35;;;;;;;1.05;0.93;;;10.90;99.90;;;;;;5004711;28;20104;-83
2022/10/23 00:16:00;;;;;;;1.17;1.08;;;10.90;99.90;;;;;;5003776;28;20037;-85
2022/10/23 00:18:33;;;;;;;1.10;1.00;;;10.80;99.90;;;;;;5004622;28;20085;-84
2022/10/23 00:21:03;;;;;;;2.65;1.40;;;10.80;99.90;;;;;;4989072;28;20106;-83
2022/10/23 00:23:28;;;;;;;1.42;1.00;;;10.80;99.90;;;;;;4990155;28;20022;-85
2022/10/23 00:25:54;;;;;;;2.30;1.13;;;10.70;99.90;;;;;;4997886;28;20055;-84
2022/10/23 00:28:20;;;;;;;1.33;1.00;;;10.70;99.90;;;;;;4995485;28;20042;-84
2022/10/23 00:30:46;;;;;;;2.05;0.80;;;10.70;99.90;;;;;;4996510;28;20053;-84
2022/10/23 00:33:12;;;;;;;1.27;1.13;;;10.70;99.90;;;;;;5000444;28;20038;-84
2022/10/23 00:35:41;;;;;;;1.30;1.20;;;10.60;99.90;;;;;;5003063;28;20065;-83
2022/10/23 00:38:07;;;;;;;2.53;1.10;;;10.60;99.90;;;;;;5005372;28;20052;-84
2022/10/23 00:40:34;;;;;;;2.40;1.25;;;10.60;99.90;;;;;;5007841;28;20062;-84
2022/10/23 00:43:00;;;;;;;1.02;0.93;;;10.60;99.90;;;;;;5007525;28;20073;-82
2022/10/23 00:45:30;;;;;;;1.13;0.98;;;10.50;99.90;;;;;;5005853;28;20019;-85
2022/10/23 00:47:56;;;;;;;1.75;0.95;;;10.60;99.90;;;;;;4982164;28;20095;-85
2022/10/23 00:50:24;;;;;;;1.55;0.63;;;10.50;99.90;;;;;;4998007;28;20037;-84
2022/10/23 00:52:53;;;;;;;1.02;0.80;;;10.50;99.90;;;;;;4990366;28;20051;-85
2022/10/23 00:55:21;;;;;;;1.17;0.88;;;10.50;99.90;;;;;;5000099;28;20035;-83
2022/10/23 00:57:48;;;;;;;0.73;0.73;;;10.50;99.90;;;;;;4987394;28;20050;-83
2022/10/23 01:00:19;;;;;;;1.00;0.90;;;10.50;99.90;;;;;;5003969;28;20277;-84
2022/10/23 01:02:45;;;;;;;0.68;0.68;;;10.40;99.90;;;;;;5006258;28;20033;-83
2022/10/23 01:05:10;;;;;;;0.80;0.57;;;10.40;99.90;;;;;;4999241;28;20027;-84
2022/10/23 01:07:51;;;;;;;2.03;0.80;;;10.40;99.90;;;;;;4993115;28;20040;-84
2022/10/23 01:10:33;;;;;;;1.05;0.70;;;10.40;99.90;;;;;;4984319;28;20026;-83
2022/10/23 01:13:14;;;;;;;0.60;0.60;;;10.40;99.90;;;;;;4987709;28;20490;-84
2022/10/23 01:15:58;;;;;;;1.13;0.60;;;10.40;99.90;;;;;;4984588;28;20062;-84
2022/10/23 01:18:23;;;;;;;1.95;0.70;;;10.30;99.90;;;;;;5000311;28;20025;-84
2022/10/23 01:21:00;;;;;;;0.47;0.47;;;10.30;99.90;;;;;;5015716;28;20062;-84
2022/10/23 01:23:35;;;;;;;0.57;0.57;;;10.30;99.90;;;;;;5006998;28;20023;-84
2022/10/23 01:26:14;;;;;;;0.68;0.68;;;10.30;99.90;;;;;;5001569;28;20030;-82
2022/10/23 01:28:54;;;;;;;1.02;0.68;;;10.30;99.90;;;;;;4999827;28;20101;-84
2022/10/23 01:31:38;;;;;;;0.80;0.75;;;10.30;99.90;;;;;;5014115;28;20054;-85
2022/10/23 01:34:15;;;;;;;1.35;0.82;;;10.30;99.90;;;;;;5000466;28;20391;-83
2022/10/23 01:36:46;;;;;;;0.63;0.63;;;10.30;99.90;;;;;;4988722;28;20022;-84
2022/10/23 01:39:17;;;;;;;1.35;0.82;;;10.30;99.90;;;;;;4985477;28;20027;-85
2022/10/23 01:41:53;;;;;;;0.45;0.45;;;10.40;99.90;;;;;;5003814;28;20038;-84
2022/10/23 01:44:26;;;;;;;0.90;0.88;;;10.30;99.90;;;;;;4988149;28;20483;-83
2022/10/23 01:46:53;;;;;;;0.50;0.50;;;10.30;99.90;;;;;;4998210;28;20075;-83
2022/10/23 01:49:20;;;;;;;1.45;0.80;;;10.30;99.90;;;;;;5002874;28;20022;-83
2022/10/23 01:51:51;;;;;;;1.08;0.90;;;10.30;99.90;;;;;;5003372;28;20018;-83
2022/10/23 01:54:19;;;;;;;2.38;0.60;;;10.30;99.90;;;;;;5005551;28;20106;-83
2022/10/23 01:56:48;;;;;;;0.75;0.75;;;10.30;99.90;;;;;;5008847;28;20026;-84
2022/10/23 01:59:20;;;;;;;0.77;0.70;;;10.20;99.90;;;;;;4988918;28;20050;-82
2022/10/23 02:01:49;;;;;;;1.00;0.90;;;10.20;99.90;;;;;;4982488;28;20037;-83
2022/10/23 02:04:22;;;;;;;0.50;0.50;;;10.20;99.90;;;;;;5002261;28;20475;-83
2022/10/23 02:06:48;;;;;;;0.47;0.47;;;10.20;99.90;;;;;;4988354;28;20299;-84
2022/10/23 02:09:14;;;;;;;0.35;0.35;;;10.20;99.90;;;;;;4980099;28;20034;-84
2022/10/23 02:11:58;;;;;;;1.08;0.70;;;10.20;99.90;;;;;;4968633;28;20035;-84
2022/10/23 02:14:50;;;;;;;0.77;0.57;;;10.20;99.90;;;;;;5001066;28;20073;-84
2022/10/23 02:17:40;;;;;;;1.83;0.43;;;10.10;99.90;;;;;;4999558;28;20273;-84
2022/10/23 02:20:16;;;;;;;0.93;0.88;;;10.10;99.90;;;;;;4981693;28;20061;-84
2022/10/23 02:23:13;;;;;;;1.73;0.73;;;10.10;99.90;;;;;;4997732;28;20487;-84
2022/10/23 02:26:03;;;;;;;0.47;0.47;;;10.10;99.90;;;;;;4980181;28;20030;-84
2022/10/23 02:28:43;;;;;;;2.30;0.57;;;10.10;99.90;;;;;;4971078;28;20054;-84
2022/10/23 02:31:13;;;;;;;0.75;0.65;;;10.10;99.90;;;;;;4984981;28;20055;-84
2022/10/23 02:33:39;;;;;;;0.60;0.60;;;10.00;99.90;;;;;;4982229;28;20058;-84
2022/10/23 02:36:05;;;;;;;1.08;0.57;;;10.00;99.90;;;;;;4971930;28;20164;-84
2022/10/23 02:38:32;;;;;;;1.05;0.68;;;10.00;99.90;;;;;;5000409;28;20030;-84
2022/10/23 02:41:23;;;;;;;0.55;0.50;;;10.00;99.90;;;;;;4998623;28;20110;-83
2022/10/23 02:43:55;;;;;;;0.98;0.50;;;10.00;99.90;;;;;;4983770;28;20042;-83
2022/10/23 02:46:51;;;;;;;3.15;0.50;;;10.00;99.90;;;;;;4981815;28;20026;-84
2022/10/23 02:49:19;;;;;;;1.05;0.80;;;9.90;99.90;;;;;;4992159;28;20034;-83
2022/10/23 02:52:08;;;;;;;2.03;0.50;;;9.90;99.90;;;;;;4985151;28;20023;-83
2022/10/23 02:54:57;;;;;;;0.40;0.40;;;9.90;99.90;;;;;;4964069;28;20089;-83
2022/10/23 02:57:28;;;;;;;1.17;0.82;;;9.90;99.90;;;;;;4983796;28;20026;-84
2022/10/23 03:00:04;;;;;;;2.03;0.90;;;9.80;99.90;;;;;;4997204;28;20023;-83
2022/10/23 03:02:39;;;;;;;2.85;0.65;;;9.80;99.90;;;;;;4991350;28;20559;-84
2022/10/23 03:05:17;;;;;;;0.60;0.60;;;9.80;99.90;;;;;;5002286;28;20034;-84
2022/10/23 03:07:43;;;;;;;0.60;0.60;;;9.70;99.90;;;;;;4982112;28;20089;-83
2022/10/23 03:10:09;;;;;;;0.68;0.60;;;9.80;99.90;;;;;;4981936;28;20066;-83
2022/10/23 03:12:35;;;;;;;1.95;0.63;;;9.70;99.90;;;;;;4982135;28;20023;-83
2022/10/23 03:15:01;;;;;;;0.63;0.57;;;9.70;99.90;;;;;;4998384;28;20018;-83
2022/10/23 03:17:26;;;;;;;0.80;0.80;;;9.80;99.90;;;;;;5003878;28;20391;-84
2022/10/23 03:19:52;;;;;;;0.90;0.70;;;9.70;99.90;;;;;;4976972;28;20033;-84
2022/10/23 03:22:18;;;;;;;1.00;0.50;;;9.70;99.90;;;;;;4994136;28;20034;-84
2022/10/23 03:24:44;;;;;;;0.55;0.55;;;9.70;99.90;;;;;;4988602;28;20023;-85
2022/10/23 03:27:10;;;;;;;1.45;0.60;;;9.70;99.90;;;;;;5003592;28;20085;-83
2022/10/23 03:29:36;;;;;;;0.50;0.50;;;9.70;99.90;;;;;;5006042;28;20014;-84
2022/10/23 03:32:03;;;;;;;0.73;0.70;;;9.70;99.90;;;;;;5005639;28;20026;-83
2022/10/23 03:34:29;;;;;;;0.88;0.55;;;9.60;99.90;;;;;;5007737;28;20022;-84
2022/10/23 03:36:55;;;;;;;0.73;0.73;;;9.60;99.90;;;;;;5007670;28;20072;-83
2022/10/23 03:39:21;;;;;;;0.50;0.50;;;9.60;99.90;;;;;;5003053;28;20042;-83
2022/10/23 03:41:46;;;;;;;0.32;0.32;;;9.60;99.90;;;;;;4999199;28;20039;-84
2022/10/23 03:44:12;;;;;;;1.13;0.68;;;9.50;99.90;;;;;;4995026;28;20044;-83
2022/10/23 03:46:38;;;;;;;0.43;0.43;;;9.60;99.90;;;;;;4988136;28;20072;-84
2022/10/23 03:49:04;;;;;;;0.50;0.50;;;9.50;99.90;;;;;;4988033;28;20022;-84
2022/10/23 03:51:30;;;;;;;0.63;0.45;;;9.50;99.90;;;;;;4971763;28;20018;-84
2022/10/23 03:53:55;;;;;;;1.10;0.70;;;9.50;99.90;;;;;;5011758;28;20034;-82
2022/10/23 03:56:21;;;;;;;0.30;0.30;;;9.50;99.90;;;;;;4999532;28;20026;-83
2022/10/23 03:58:47;;;;;;;2.42;0.52;;;9.50;99.90;;;;;;4993852;28;20054;-82
2022/10/23 04:01:13;;;;;;;2.92;0.75;;;9.50;99.90;;;;;;5002514;28;20492;-84
2022/10/23 04:03:38;;;;;;;2.30;0.73;;;9.50;99.90;;;;;;5002924;28;20022;-84
2022/10/23 04:06:04;;;;;;;1.42;0.60;;;9.50;99.90;;;;;;5003453;28;20033;-84
2022/10/23 04:08:30;;;;;;;0.40;0.40;;;9.50;99.90;;;;;;5002423;28;20026;-84
2022/10/23 04:10:56;;;;;;;0.45;0.38;;;9.50;99.90;;;;;;5005405;28;20038;-87
2022/10/23 04:13:39;;;;;;;0.88;0.60;;;9.50;99.90;;;;;;4985906;28;20038;-87
2022/10/23 04:16:04;;;;;;;0.60;0.60;;;9.50;99.90;;;;;;4984515;28;20042;-85
2022/10/23 04:18:33;;;;;;;1.08;0.70;;;9.60;99.90;;;;;;4989022;28;20014;-88
2022/10/23 04:21:01;;;;;;;0.85;0.50;;;9.60;99.90;;;;;;4991547;28;20049;-85
2022/10/23 04:23:33;;;;;;;1.17;0.40;;;9.60;99.90;;;;;;5015807;28;20023;-93
2022/10/23 04:26:02;;;;;;;0.50;0.40;;;9.60;99.90;;;;;;4983467;28;20073;-86
2022/10/23 04:28:38;;;;;;;0.40;0.40;;;9.60;99.90;;;;;;4985215;28;20150;-87
2022/10/23 04:31:07;;;;;;;0.40;0.40;;;9.60;99.90;;;;;;4969374;28;20117;-87
2022/10/23 04:33:33;;;;;;;0.82;0.30;;;9.50;99.90;;;;;;4982279;28;20045;-84
2022/10/23 04:35:59;;;;;;;0.30;0.30;;;9.60;99.90;;;;;;4968226;28;20057;-85
2022/10/23 04:38:25;;;;;;;0.38;0.38;;;9.50;99.90;;;;;;4987902;28;20033;-85
2022/10/23 04:40:51;;;;;;;0.77;0.50;;;9.60;99.90;;;;;;5010338;28;20041;-85
2022/10/23 04:43:16;;;;;;;0.90;0.40;;;9.60;99.90;;;;;;4989681;28;20027;-87
2022/10/23 04:45:42;;;;;;;0.50;0.43;;;9.50;99.90;;;;;;4989174;28;20039;-86
2022/10/23 04:48:08;;;;;;;0.43;0.43;;;9.60;99.90;;;;;;4987375;28;20439;-86
2022/10/23 04:50:33;;;;;;;0.30;0.30;;;9.50;99.90;;;;;;4986332;28;20026;-85
2022/10/23 04:52:59;;;;;;;0.63;0.47;;;9.60;99.90;;;;;;4985231;28;20088;-84
2022/10/23 04:55:25;;;;;;;0.60;0.60;;;9.60;99.90;;;;;;4984924;28;20034;-86
2022/10/23 04:57:51;;;;;;;1.90;0.60;;;9.60;99.90;;;;;;5009238;28;20050;-86
2022/10/23 05:00:17;;;;;;;0.85;0.80;;;9.60;99.90;;;;;;5013786;28;20030;-86
2022/10/23 05:02:43;;;;;;;2.03;0.82;;;9.60;99.90;;;;;;5015722;28;20045;-89
2022/10/23 05:05:10;;;;;;;2.05;0.90;;;9.60;99.90;;;;;;4995668;28;20138;-86
2022/10/23 05:07:36;;;;;;;0.68;0.68;;;9.60;99.90;;;;;;4998908;28;20046;-86
2022/10/23 05:10:03;;;;;;;1.25;1.05;;;9.60;99.90;;;;;;4981585;28;20099;-85
2022/10/23 05:12:29;;;;;;;1.02;0.90;;;9.60;99.90;;;;;;4991526;28;20476;-86
2022/10/23 05:14:54;;;;;;;1.15;0.90;;;9.60;99.90;;;;;;4986117;28;20019;-85
2022/10/23 05:17:25;;;;;;;1.27;1.10;;;9.60;99.90;;;;;;4988447;28;20015;-87
2022/10/23 05:19:56;;;;;;;1.30;1.08;;;9.50;99.90;;;;;;4998647;28;20018;-89
2022/10/23 05:22:25;;;;;;;0.55;0.55;;;9.50;99.90;;;;;;4978960;28;20049;-86
2022/10/23 05:24:52;;;;;;;1.15;0.75;;;9.50;99.90;;;;;;4985514;28;20037;-85
2022/10/23 05:27:18;;;;;;;4.80;1.08;;;;;;;;;;4993014;28;20018;-80
2022/10/23 05:29:44;;;;;;;3.00;1.77;;;;;;;;;;5016224;28;20026;-79
2022/10/23 05:32:11;;;;;;;2.25;1.02;;;;;;;;;;4998064;28;20039;-80
2022/10/23 05:34:38;;;;;;;2.53;1.15;;;;;;;;;;5010328;28;20030;-81
2022/10/23 05:37:05;;;;;;;1.42;0.70;;;;;;;;;;5012319;28;20029;-80
2022/10/23 05:39:32;;;;;;;1.38;0.70;;;;;;;;;;5021943;28;20026;-80
2022/10/23 05:41:58;;;;;;;0.40;0.40;;;;;;;;;;4991939;28;20042;-81
2022/10/23 05:44:24;;;;;;;0.45;0.30;;;;;;;;;;4989406;28;20010;-80
2022/10/23 05:46:50;;;;;;;0.90;0.73;;;;;;;;;;5012877;28;20026;-81
2022/10/23 05:49:16;;;;;;;0.75;0.55;;;;;;;;;;4989708;28;20023;-82
2022/10/23 05:51:42;;;;;;;0.73;0.50;;;;;;;;;;4973045;28;20037;-79
2022/10/23 05:54:08;;;;;;;0.80;0.50;;;;;;;;;;4973498;28;20026;-79
2022/10/23 05:56:35;;;;;;;2.60;0.95;;;;;;;;;;5003695;28;20034;-81
2022/10/23 05:59:01;;;;;;;1.08;0.57;;;;;;;;;;5003611;28;20041;-81
2022/10/23 06:01:27;;;;;;;2.00;0.75;;;;;;;;;;5002889;28;20510;-80
2022/10/23 06:03:53;;;;;;;0.88;0.60;;;;;;;;;;5005518;28;20034;-81
2022/10/23 06:06:19;;;;;;;0.60;0.50;;;;;;;;;;5001356;28;20044;-81
2022/10/23 06:08:45;;;;;;;1.90;0.60;;;;;;;;;;4985756;28;20368;-80
2022/10/23 06:11:14;;;;;;;0.55;0.50;;;;;;;;;;4982662;28;20113;-79
2022/10/23 06:13:43;;;;;;;1.20;0.68;;;;;;;;;;5000962;28;20022;-82
2022/10/23 06:16:14;;;;;;;2.63;0.60;;;;;;;;;;4995118;28;20031;-83
2022/10/23 06:18:40;;;;;;;0.40;0.40;;;;;;;;;;4985458;28;20061;-83
2022/10/23 06:21:06;;;;;;;0.52;0.52;;;;;;;;;;4978789;28;20038;-82
2022/10/23 06:23:33;;;;;;;0.60;0.50;;;;;;;;;;4981892;28;20046;-83
2022/10/23 06:26:00;;;;;;;0.50;0.30;;;;;;;;;;4989825;28;20027;-84
2022/10/23 06:28:26;;;;;;;0.40;0.40;;;;;;;;;;4999452;28;20396;-85
2022/10/23 06:30:53;;;;;;;1.65;1.00;;;;;;;;;;5000112;28;20046;-83
2022/10/23 06:33:19;;;;;;;1.05;0.50;;;;;;;;;;5006186;28;20483;-83
2022/10/23 06:35:45;;;;;;;1.45;1.25;;;;;;;;;;5003715;28;20022;-83
2022/10/23 06:38:11;;;;;;;1.63;0.70;;;;;;;;;;5000878;28;20045;-82
2022/10/23 06:40:37;;;;;;;1.65;0.80;;;;;;;;;;4981994;28;20030;-82
2022/10/23 06:43:04;;;;;;;1.00;0.98;;;;;;;;;;5012643;28;20022;-83
2022/10/23 06:45:32;;;;;;;0.82;0.80;;;;;;;;;;5028801;28;20026;-81
2022/10/23 06:47:59;;;;;;;2.55;0.98;;;;;;;;;;5017579;28;20018;-81
2022/10/23 06:50:25;;;;;;;2.95;0.73;;;;;;;;;;5028049;28;20057;-83
2022/10/23 06:52:51;;;;;;;1.15;0.70;;;;;;;;;;5023242;28;20037;-83
2022/10/23 06:55:17;;;;;;;1.40;0.70;;;;;;;;;;5008208;28;20025;-82
2022/10/23 06:57:44;;;;;;;1.40;0.88;;;;;;;;;;5018571;28;20041;-82
2022/10/23 07:00:10;;;;;;;1.15;0.70;;;;;;;;;;5031329;28;20014;-80
2022/10/23 07:02:36;;;;;;;1.25;0.80;;;;;;;;;;5040515;28;20037;-80
2022/10/23 07:05:02;;;;;;;0.52;0.52;;;;;;;;;;5016446;28;20011;-79
2022/10/23 07:07:32;;;;;;;0.50;0.50;;;;;;;;;;5025514;28;20019;-80
2022/10/23 07:09:58;;;;;;;0.60;0.60;;;;;;;;;;5006982;28;20034;-81
2022/10/23 07:12:24;;;;;;;1.60;0.88;;;;;;;;;;5005415;28;20033;-81
2022/10/23 07:14:50;;;;;;;3.38;0.88;;;;;;;;;;5004092;28;20077;-81
2022/10/23 07:17:16;;;;;;;1.60;1.13;;;;;;;;;;5014257;28;20050;-82
2022/10/23 07:19:42;;;;;;;2.60;1.10;;;;;;;;;;5015918;28;20123;-81
2022/10/23 07:22:08;;;;;;;2.00;1.23;;;;;;;;;;4980563;28;20105;-83
2022/10/23 07:24:37;;;;;;;1.98;1.10;;;;;;;;;;4976786;28;20074;-84
2022/10/23 07:27:03;;;;;;;2.92;1.25;;;;;;;;;;4994540;28;20121;-83
2022/10/23 07:29:30;;;;;;;0.70;0.70;;;;;;;;;;4987069;28;20295;-83
2022/10/23 07:31:56;;;;;;;0.70;0.70;;;;;;;;;;5003009;28;20062;-83
2022/10/23 07:34:23;;;;;;;0.80;0.50;;;;;;;;;;5024085;28;20026;-82
2022/10/23 07:36:49;;;;;;;0.65;0.60;;;;;;;;;;5021016;28;20057;-83
2022/10/23 07:39:15;;;;;;;0.68;0.68;;;;;;;;;;5006391;28;20025;-83
2022/10/23 07:41:42;;;;;;;0.70;0.70;;;;;;;;;;5008498;28;20030;-83
2022/10/23 07:44:08;;;;;;;1.85;0.70;;;;;;;;;;4988001;28;20033;-83
2022/10/23 07:46:34;;;;;;;0.73;0.73;;;;;;;;;;4987636;28;20026;-82
2022/10/23 07:49:00;;;;;;;2.00;0.90;;;;;;;;;;5005088;28;20023;-82
2022/10/23 07:51:26;;;;;;;0.57;0.50;;;;;;;;;;4987212;28;20121;-84
2022/10/23 07:53:52;;;;;;;1.38;1.00;;;;;;;;;;5005152;28;20037;-83
2022/10/23 07:56:28;;;;;;;1.73;1.05;;;12.50;99.90;;;;;;5009852;28;20018;-82
2022/10/23 07:58:55;;;;;;;0.60;0.60;;;12.60;99.90;;;;;;5024562;28;20054;-83
2022/10/23 08:01:36;;;;;;;0.77;0.77;;;12.70;99.90;;;;;;5016298;28;20068;-84
2022/10/23 08:04:03;;;;;;;1.08;0.98;;;12.80;99.90;;;;;;4968968;28;20114;-82
2022/10/23 08:06:29;;;;;;;2.22;1.25;;;12.80;99.60;;;;;;4991032;28;20030;-82
2022/10/23 08:08:54;;;;;;;1.48;0.90;;;13.00;99.60;;;;;;5000546;28;20113;-83
2022/10/23 08:11:26;;;;;;;1.40;0.82;;;13.10;99.30;;;;;;4994753;28;20054;-83
2022/10/23 08:13:54;;;;;;;2.08;0.80;;;13.20;98.50;;;;;;4968425;28;20125;-83
2022/10/23 08:16:20;;;;;;;2.10;1.05;;;13.30;97.80;;;;;;4982748;28;20095;-83
2022/10/23 08:18:48;;;;;;;4.40;1.27;;;13.40;97.80;;;;;;4983388;28;20396;-84
2022/10/23 08:21:14;;;;;;;1.50;0.80;;;13.60;97.70;;;;;;4994049;28;20023;-83
2022/10/23 08:23:40;;;;;;;0.63;0.63;;;13.90;96.70;;;;;;4999771;28;20105;-83
2022/10/23 08:26:06;;;;;;;1.10;0.82;;;14.10;96.40;;;;;;4994397;28;20026;-83
2022/10/23 08:28:32;;;;;;;1.38;0.52;;;14.40;95.70;;;;;;5004073;28;20034;-83
2022/10/23 08:30:58;;;;;;;0.85;0.73;;;14.70;94.90;;;;;;5003545;28;20036;-84
2022/10/23 08:33:24;;;;;;;0.85;0.60;;;15.10;94.30;;;;;;5000710;28;20034;-83
2022/10/23 08:35:50;;;;;;;0.68;0.68;;;15.30;93.50;;;;;;4983241;28;20058;-83
2022/10/23 08:38:16;;;;;;;1.48;0.57;;;15.40;93.00;;;;;;4973737;28;20365;-82
2022/10/23 08:40:47;;;;;;;2.05;0.70;;;15.60;92.40;;;;;;4996387;28;20113;-82
2022/10/23 08:43:22;;;;;;;0.75;0.60;;;15.70;92.10;;;;;;5006059;28;20026;-83
2022/10/23 08:45:49;;;;;;;0.80;0.60;;;15.80;91.60;;;;;;5007023;28;20007;-83
2022/10/23 08:48:20;;;;;;;1.25;0.60;;;15.90;91.30;;;;;;5003331;28;20034;-84
2022/10/23 08:50:50;;;;;;;0.38;0.38;;;15.90;91.00;;;;;;4989574;28;20350;-84
2022/10/23 08:53:40;;;;;;;0.68;0.40;;;15.90;90.90;;;;;;4984161;28;20030;-83
2022/10/23 08:56:16;;;;;;;1.95;0.77;;;16.00;90.90;;;;;;4987879;28;20030;-83
2022/10/23 08:59:08;;;;;;;0.60;0.60;;;16.10;90.70;;;;;;5002718;28;20027;-82
2022/10/23 09:01:45;;;;;;;2.50;0.80;;;16.30;90.30;;;;;;4966413;28;20079;-82
2022/10/23 09:04:13;;;;;;;0.55;0.43;;;16.30;89.10;;;;;;5000344;28;20062;-82
2022/10/23 09:06:54;;;;;;;1.30;0.70;;;16.30;87.90;;;;;;5017432;28;20057;-81
2022/10/23 09:09:31;;;;;;;0.93;0.60;;;16.30;87.60;;;;;;5011867;28;20098;-82
2022/10/23 09:12:15;;;;;;;0.20;0.20;;;16.40;88.00;;;;;;5003351;28;20058;-82
2022/10/23 09:14:47;;;;;;;0.60;0.60;;;16.70;87.30;;;;;;5009736;28;20090;-82
2022/10/23 09:17:20;;;;;;;0.57;0.55;;;17.00;86.20;;;;;;4978931;28;20027;-82
2022/10/23 09:19:49;;;;;;;0.43;0.43;;;17.10;85.20;;;;;;4994734;28;20027;-85
2022/10/23 09:22:15;;;;;;;0.50;0.50;;;17.20;84.70;;;;;;5004569;28;20040;-82
2022/10/23 09:24:44;;;;;;;0.52;0.52;;;17.20;84.70;;;;;;5010044;28;20400;-83
2022/10/23 09:27:15;;;;;;;0.77;0.60;;;17.10;84.90;;;;;;5010844;28;20064;-84
2022/10/23 09:29:52;;;;;;;0.70;0.40;;;17.40;85.30;;;;;;5001746;28;20042;-82
2022/10/23 09:32:20;;;;;;;0.77;0.77;;;17.80;83.80;;;;;;4986746;28;20038;-83
2022/10/23 09:34:54;;;;;;;0.70;0.70;;;17.80;82.20;;;;;;5002227;28;20026;-82
2022/10/23 09:37:26;;;;;;;1.38;0.85;;;17.90;82.10;;;;;;4999607;28;20118;-82
2022/10/23 09:40:21;;;;;;;0.50;0.50;;;18.00;81.70;;;;;;5001085;28;20030;-81
2022/10/23 09:42:51;;;;;;;0.63;0.47;;;18.00;81.60;;;;;;4993740;28;20038;-81
2022/10/23 09:45:22;;;;;;;0.60;0.60;;;18.30;81.20;;;;;;4966020;28;20650;-83
2022/10/23 09:47:48;;;;;;;0.65;0.52;;;18.50;80.10;;;;;;4984643;28;20027;-83
2022/10/23 09:50:20;;;;;;;1.48;0.50;;;18.80;78.70;;;;;;4988740;28;20038;-83
2022/10/23 09:52:51;;;;;;;1.40;0.70;;;18.90;76.50;;;;;;4978834;28;20026;-83
2022/10/23 09:55:25;;;;;;;2.37;1.20;;;18.80;75.90;;;;;;4994219;28;20033;-83
2022/10/23 09:57:52;;;;;;;0.68;0.57;;;18.70;77.20;;;;;;5003825;28;20265;-83
2022/10/23 10:00:23;;;;;;;3.50;1.23;;;18.90;77.40;;;;;;4994282;28;20023;-82
2022/10/23 10:03:03;;;;;;;0.55;0.50;;;19.20;76.60;;;;;;4996432;28;20488;-84
2022/10/23 10:05:37;;;;;;;1.17;0.60;;;19.40;75.40;;;;;;4992311;28;20065;-84
2022/10/23 10:08:54;;;;;;;1.75;0.90;;;19.30;75.90;;;;;;5007397;28;20122;-84
2022/10/23 10:11:44;;;;;;;1.02;1.00;;;19.30;75.90;;;;;;4993032;28;20060;-85
2022/10/23 10:14:31;;;;;;;1.30;0.70;;;19.60;75.30;;;;;;4971462;28;20023;-85
2022/10/23 10:17:34;;;;;;;1.27;1.10;;;19.80;74.30;;;;;;4993990;28;20035;-84
2022/10/23 10:20:43;;;;;;;0.95;0.80;;;20.00;73.70;;;;;;4998248;28;20022;-84
2022/10/23 10:23:54;;;;;;;2.15;0.70;;;20.00;73.90;;;;;;4927473;29;20079;-83
2022/10/23 10:26:29;;;;;;;0.93;0.73;;;19.80;73.80;;;;;;4979718;28;20070;-84
2022/10/23 10:29:01;;;;;;;1.23;0.70;;;19.60;74.90;;;;;;5007262;28;20026;-84
2022/10/23 10:31:51;;;;;;;2.95;0.70;;;19.60;75.70;;;;;;5002265;28;20077;-84
2022/10/23 10:34:25;;;;;;;0.70;0.70;;;19.60;75.30;;;;;;4992268;28;20123;-83
2022/10/23 10:37:02;;;;;;;1.10;0.90;;;19.70;75.40;;;;;;5011362;28;20030;-83
2022/10/23 10:40:06;;;;;;;1.52;1.25;;;19.90;75.20;;;;;;5015724;28;20022;-83
2022/10/23 10:42:58;;;;;;;2.42;1.40;;;19.90;73.90;;;;;;4965073;28;20058;-83
2022/10/23 10:45:36;;;;;;;1.35;0.70;;;19.90;74.40;;;;;;4991699;28;20027;-85
2022/10/23 10:48:35;;;;;;;0.95;0.70;;;19.90;73.80;;;;;;4968758;28;20046;-84
2022/10/23 10:51:20;;;;;;;1.60;0.70;;;20.00;73.90;;;;;;4970030;28;20030;-83
2022/10/23 10:54:08;;;;;;;1.50;0.52;;;20.20;73.70;;;;;;4969276;28;20031;-84
2022/10/23 10:56:37;;;;;;;1.70;0.82;;;20.20;73.10;;;;;;5011606;28;20018;-84
2022/10/23 10:59:25;;;;;;;0.68;0.55;;;20.30;72.70;;;;;;5007099;28;20135;-84
2022/10/23 11:02:20;;;;;;;0.75;0.65;;;20.40;72.40;;;;;;5009310;28;20053;-84
2022/10/23 11:05:04;;;;;;;0.47;0.47;;;20.50;72.50;;;;;;4994522;28;20074;-83
2022/10/23 11:07:39;;;;;;;2.17;0.88;;;20.50;72.80;;;;;;5002049;28;20101;-84
2022/10/23 11:10:16;;;;;;;1.13;0.80;;;20.40;73.00;;;;;;5003760;28;20274;-83
2022/10/23 11:12:43;;;;;;;0.68;0.57;;;20.40;73.40;;;;;;4984414;28;20023;-84
2022/10/23 11:15:15;;;;;;;2.75;0.80;;;20.30;73.10;;;;;;4985421;28;21170;-82
2022/10/23 11:17:46;;;;;;;0.50;0.50;;;20.20;73.40;;;;;;4991557;28;20027;-83
2022/10/23 11:20:37;;;;;;;0.63;0.55;;;20.30;73.90;;;;;;4995940;28;20035;-82
2022/10/23 11:23:08;;;;;;;1.63;0.65;;;20.30;73.70;;;;;;4987280;28;20035;-83
2022/10/23 11:26:16;;;;;;;2.45;0.68;;;20.30;73.10;;;;;;4989890;28;20367;-83
2022/10/23 11:28:42;;;;;;;0.70;0.35;;;20.30;73.20;;;;;;4997058;28;20045;-83
2022/10/23 11:31:35;;;;;;;0.50;0.50;;;20.40;73.40;;;;;;4989310;28;20030;-83
2022/10/23 11:34:07;;;;;;;0.70;0.68;;;20.50;73.30;;;;;;4997970;28;20082;-83
2022/10/23 11:36:45;;;;;;;1.00;0.77;;;20.60;72.20;;;;;;5002524;28;20022;-84
2022/10/23 11:39:21;;;;;;;0.70;0.70;;;20.70;72.10;;;;;;4984060;28;20050;-83
2022/10/23 11:41:55;;;;;;;1.05;0.70;;;20.80;71.80;;;;;;5002790;28;20375;-85
2022/10/23 11:44:36;;;;;;;0.50;0.50;;;21.00;71.50;;;;;;4994286;28;20027;-85
2022/10/23 11:47:25;;;;;;;0.87;0.57;;;21.00;71.20;;;;;;5004695;28;20022;-84
2022/10/23 11:50:02;;;;;;;0.73;0.73;;;21.00;70.90;;;;;;4998447;28;20031;-84
2022/10/23 11:52:28;;;;;;;0.82;0.75;;;21.00;70.50;;;;;;4988530;28;20023;-84
2022/10/23 11:55:02;;;;;;;1.15;0.70;;;21.00;70.20;;;;;;4997262;28;20058;-85
2022/10/23 11:57:28;;;;;;;1.15;0.65;;;21.00;69.70;;;;;;4972840;28;20062;-83
2022/10/23 11:59:55;;;;;;;1.08;0.52;;;21.00;70.10;;;;;;5004636;28;20030;-82
2022/10/23 12:02:32;;;;;;;3.00;0.85;;;21.10;69.70;;;;;;4993312;28;20031;-84
2022/10/23 12:05:02;;;;;;;1.00;0.80;;;21.00;69.30;;;;;;4999002;28;20054;-84
2022/10/23 12:07:31;;;;;;;2.58;1.23;;;21.00;70.00;;;;;;5009291;28;20098;-82
2022/10/23 12:10:05;;;;;;;1.67;0.60;;;21.10;69.40;;;;;;5009973;28;20054;-83
2022/10/23 12:12:33;;;;;;;1.13;0.85;;;21.10;69.50;;;;;;5012381;28;20014;-83
2022/10/23 12:15:07;;;;;;;1.05;0.80;;;21.10;69.70;;;;;;5016753;28;20053;-83
2022/10/23 12:17:36;;;;;;;0.80;0.60;;;21.40;69.70;;;;;;5000526;28;20034;-83
2022/10/23 12:20:18;;;;;;;0.77;0.75;;;21.60;69.20;;;;;;5000517;28;20384;-84
2022/10/23 12:22:59;;;;;;;1.63;0.60;;;21.70;69.00;;;;;;5003601;28;20034;-83
2022/10/23 12:25:36;;;;;;;2.67;0.88;;;21.80;68.50;;;;;;5007495;28;20085;-85
2022/10/23 12:28:34;;;;;;;0.90;0.80;;;21.70;68.50;;;;;;4990167;28;20065;-85
2022/10/23 12:31:15;;;;;;;1.08;0.90;;;21.50;69.00;;;;;;5000157;28;20042;-83
2022/10/23 12:33:50;;;;;;;0.88;0.77;;;21.30;70.10;;;;;;4993113;28;20071;-84
2022/10/23 12:36:46;;;;;;;0.80;0.80;;;21.30;70.30;;;;;;4976655;28;20030;-84
2022/10/23 12:39:27;;;;;;;0.50;0.50;;;21.20;70.60;;;;;;4963423;28;20050;-85
2022/10/23 12:41:53;;;;;;;0.73;0.63;;;21.10;70.50;;;;;;5008274;28;20121;-83
2022/10/23 12:44:19;;;;;;;0.77;0.77;;;21.00;70.80;;;;;;5004868;28;20031;-85
2022/10/23 12:46:52;;;;;;;1.95;0.70;;;20.90;70.80;;;;;;4993786;28;20023;-83
2022/10/23 12:49:23;;;;;;;0.95;0.88;;;21.10;70.90;;;;;;4998367;28;20083;-83
2022/10/23 12:52:01;;;;;;;2.42;1.00;;;21.10;70.20;;;;;;5003390;28;20053;-83
2022/10/23 12:54:29;;;;;;;1.08;0.80;;;21.20;70.10;;;;;;5005120;28;20435;-84
2022/10/23 12:56:58;;;;;;;1.23;0.82;;;21.40;69.80;;;;;;4992689;28;20042;-84
2022/10/23 12:59:37;;;;;;;0.50;0.50;;;21.40;69.40;;;;;;4993397;28;20053;-84
2022/10/23 13:02:23;;;;;;;1.27;0.70;;;21.60;69.20;;;;;;4994449;28;20031;-84
2022/10/23 13:04:51;;;;;;;0.80;0.80;;;21.70;69.20;;;;;;4990854;28;20084;-84
2022/10/23 13:07:35;;;;;;;0.77;0.70;;;21.90;69.00;;;;;;5008710;28;20041;-83
2022/10/23 13:10:02;;;;;;;0.77;0.77;;;22.20;67.90;;;;;;5007861;28;20050;-83
2022/10/23 13:12:32;;;;;;;1.85;1.00;;;22.40;67.10;;;;;;5004360;28;20031;-83
2022/10/23 13:15:07;;;;;;;0.68;0.68;;;22.40;66.80;;;;;;4989953;28;20463;-84
2022/10/23 13:17:36;;;;;;;0.77;0.50;;;22.40;67.00;;;;;;5014813;28;20078;-83
2022/10/23 13:20:17;;;;;;;0.60;0.60;;;22.40;66.80;;;;;;5010084;28;20019;-82
2022/10/23 13:22:48;;;;;;;0.60;0.60;;;22.60;66.50;;;;;;5002540;28;20058;-84
2022/10/23 13:25:35;;;;;;;0.50;0.50;;;22.70;66.00;;;;;;5004156;28;20506;-83
2022/10/23 13:28:06;;;;;;;0.75;0.75;;;22.70;65.80;;;;;;4988440;28;20055;-84
2022/10/23 13:30:34;;;;;;;1.05;0.98;;;22.60;65.90;;;;;;4993090;28;20031;-84
2022/10/23 13:33:00;;;;;;;1.05;0.68;;;22.70;65.80;;;;;;4994508;28;20510;-84